createdAt,value
2023-04-09T00:00:27.997Z,29.05
2023-04-09T00:02:55.849Z,29.00
2023-04-09T00:05:23.077Z,30.70
2023-04-09T00:07:50.107Z,28.20
2023-04-09T00:10:17.264Z,29.38
2023-04-09T00:12:44.373Z,28.10
2023-04-09T00:15:20.617Z,26.77
2023-04-09T00:17:56.468Z,29.35
2023-04-09T00:20:24.217Z,28.90
2023-04-09T00:22:52.901Z,28.52
2023-04-09T00:25:20.828Z,29.02
2023-04-09T00:27:48.634Z,29.40
2023-04-09T00:30:16.696Z,27.23
2023-04-09T00:32:44.129Z,28.60
2023-04-09T00:35:12.507Z,29.30
2023-04-09T00:37:39.547Z,29.08
2023-04-09T00:40:07.449Z,28.92
2023-04-09T00:42:36.555Z,27.40
2023-04-09T00:45:04.879Z,26.13
2023-04-09T00:47:32.297Z,26.45
2023-04-09T00:50:01.729Z,26.58
2023-04-09T00:52:32.715Z,27.77
2023-04-09T00:55:04.040Z,27.30
2023-04-09T00:57:31.249Z,24.77
2023-04-09T00:59:58.767Z,25.50
2023-04-09T01:02:26.575Z,23.02
2023-04-09T01:04:53.827Z,24.08
2023-04-09T01:07:58.914Z,25.52
2023-04-09T01:10:32.671Z,26.30
2023-04-09T01:15:50.554Z,24.90
2023-04-09T01:18:40.185Z,25.50
2023-04-09T01:21:20.989Z,23.30
2023-04-09T01:24:25.475Z,24.75
2023-04-09T01:27:07.939Z,24.25
2023-04-09T01:29:45.536Z,26.63
2023-04-09T01:32:14.072Z,25.58
2023-04-09T01:34:42.828Z,24.48
2023-04-09T01:37:11.030Z,28.00
2023-04-09T01:39:39.193Z,24.63
2023-04-09T01:42:11.275Z,26.27
2023-04-09T01:44:41.867Z,23.40
2023-04-09T01:47:10.333Z,22.90
2023-04-09T01:49:40.063Z,23.98
2023-04-09T01:52:07.844Z,22.92
2023-04-09T01:54:34.922Z,22.63
2023-04-09T01:57:02.123Z,21.40
2023-04-09T01:59:29.193Z,24.83
2023-04-09T02:02:05.779Z,20.42
2023-04-09T02:04:52.199Z,20.58
2023-04-09T02:07:26.158Z,21.95
2023-04-09T02:09:54.804Z,20.40
2023-04-09T02:12:23.389Z,21.60
2023-04-09T02:14:53.217Z,23.13
2023-04-09T02:17:20.635Z,20.73
2023-04-09T02:19:48.873Z,20.27
2023-04-09T02:22:16.911Z,21.63
2023-04-09T02:24:44.260Z,23.35
2023-04-09T02:27:11.330Z,22.02
2023-04-09T02:29:41.023Z,18.95
2023-04-09T02:32:08.523Z,18.95
2023-04-09T02:34:35.700Z,20.30
2023-04-09T02:37:02.770Z,21.10
2023-04-09T02:39:29.829Z,20.02
2023-04-09T02:41:58.019Z,19.65
2023-04-09T02:44:25.370Z,20.80
2023-04-09T02:46:52.859Z,19.17
2023-04-09T02:49:19.987Z,19.38
2023-04-09T02:51:47.076Z,17.88
2023-04-09T02:54:14.200Z,19.77
2023-04-09T02:56:41.341Z,21.42
2023-04-09T02:59:08.361Z,19.48
2023-04-09T03:01:35.580Z,21.73
2023-04-09T03:04:03.108Z,20.55
2023-04-09T03:06:30.211Z,20.55
2023-04-09T03:08:57.329Z,20.38
2023-04-09T03:11:24.477Z,20.75
2023-04-09T03:13:53.068Z,20.67
2023-04-09T03:16:20.277Z,17.77
2023-04-09T03:18:47.547Z,18.23
2023-04-09T03:21:15.130Z,19.25
2023-04-09T03:23:42.330Z,19.05
2023-04-09T03:26:09.496Z,20.88
2023-04-09T03:28:36.662Z,20.88
2023-04-09T03:31:03.710Z,21.13
2023-04-09T03:33:31.087Z,22.00
2023-04-09T03:35:58.224Z,23.75
2023-04-09T03:38:25.502Z,22.88
2023-04-09T03:40:52.600Z,24.98
2023-04-09T03:43:19.663Z,25.60
2023-04-09T03:45:46.788Z,26.00
2023-04-09T03:48:13.866Z,29.40
2023-04-09T03:50:42.068Z,25.85
2023-04-09T03:53:09.225Z,26.40
2023-04-09T03:55:37.679Z,22.88
2023-04-09T03:58:04.702Z,26.13
2023-04-09T04:00:31.880Z,25.90
2023-04-09T04:02:59.270Z,26.63
2023-04-09T04:05:26.724Z,26.50
2023-04-09T04:07:54.005Z,25.98
2023-04-09T04:10:21.206Z,24.45
2023-04-09T04:12:48.309Z,25.02
2023-04-09T04:15:15.713Z,23.90
2023-04-09T04:17:42.831Z,25.05
2023-04-09T04:20:10.307Z,25.20
2023-04-09T04:22:37.380Z,25.05
2023-04-09T04:25:05.511Z,22.10
2023-04-09T04:27:32.600Z,26.10
2023-04-09T04:30:00.386Z,26.60
2023-04-09T04:32:27.758Z,26.63
2023-04-09T04:34:54.910Z,26.13
2023-04-09T04:37:22.054Z,27.27
2023-04-09T04:39:49.195Z,24.55
2023-04-09T04:42:17.449Z,24.80
2023-04-09T04:44:45.238Z,27.35
2023-04-09T04:47:12.369Z,26.95
2023-04-09T04:49:39.483Z,24.70
2023-04-09T04:52:07.824Z,26.95
2023-04-09T04:54:34.974Z,28.35
2023-04-09T04:57:02.180Z,22.73
2023-04-09T04:59:29.595Z,26.10
2023-04-09T05:01:56.677Z,26.25
2023-04-09T05:04:23.886Z,18.02
2023-04-09T05:06:51.153Z,15.85
2023-04-09T05:09:18.768Z,14.77
2023-04-09T05:11:46.807Z,12.27
2023-04-09T05:14:13.953Z,12.18
2023-04-09T05:16:41.660Z,11.63
2023-04-09T05:19:08.836Z,11.35
2023-04-09T05:21:35.981Z,11.75
2023-04-09T05:24:03.086Z,10.95
2023-04-09T05:26:30.274Z,9.15
2023-04-09T05:28:59.046Z,9.25
2023-04-09T05:31:26.366Z,8.75
2023-04-09T05:33:53.413Z,8.68
2023-04-09T05:36:20.570Z,7.60
2023-04-09T05:38:48.202Z,6.80
2023-04-09T05:41:15.466Z,7.20
2023-04-09T05:43:43.350Z,8.05
2023-04-09T05:46:10.650Z,7.35
2023-04-09T05:48:37.766Z,9.02
2023-04-09T05:51:05.011Z,6.88
2023-04-09T05:53:32.649Z,7.20
2023-04-09T05:55:59.811Z,7.03
2023-04-09T05:58:29.181Z,7.03
2023-04-09T06:00:56.383Z,6.85
2023-04-09T06:03:23.561Z,7.40
2023-04-09T06:05:50.917Z,6.15
2023-04-09T06:08:18.021Z,5.95
2023-04-09T06:10:45.155Z,5.90
2023-04-09T06:13:12.332Z,5.72
2023-04-09T06:15:40.008Z,7.75
2023-04-09T06:18:07.170Z,9.48
2023-04-09T06:20:34.349Z,8.80
2023-04-09T06:23:01.539Z,8.95
2023-04-09T06:25:28.724Z,7.53
2023-04-09T06:27:55.853Z,8.65
2023-04-09T06:30:23.255Z,9.07
2023-04-09T06:32:54.791Z,8.05
2023-04-09T06:35:23.189Z,9.17
2023-04-09T06:37:50.546Z,7.78
2023-04-09T06:40:18.433Z,9.45
2023-04-09T06:42:46.531Z,8.85
2023-04-09T06:45:13.539Z,10.10
2023-04-09T06:47:40.755Z,10.75
2023-04-09T06:50:08.485Z,11.77
2023-04-09T06:52:35.590Z,11.00
2023-04-09T06:55:02.724Z,12.82
2023-04-09T06:57:30.415Z,12.60
2023-04-09T06:59:57.559Z,14.05
2023-04-09T07:02:24.868Z,12.90
2023-04-09T07:04:52.176Z,12.07
2023-04-09T07:07:21.469Z,14.88
2023-04-09T07:09:50.874Z,13.93
2023-04-09T07:12:28.265Z,12.20
2023-04-09T07:15:10.305Z,16.77
2023-04-09T07:17:37.415Z,15.55
2023-04-09T07:20:05.069Z,15.13
2023-04-09T07:22:32.355Z,14.18
2023-04-09T07:24:59.590Z,14.15
2023-04-09T07:27:27.909Z,14.00
2023-04-09T07:29:56.924Z,12.07
2023-04-09T07:32:24.690Z,13.43
2023-04-09T07:34:53.360Z,11.10
2023-04-09T07:37:21.301Z,11.25
2023-04-09T07:39:49.475Z,11.90
2023-04-09T07:42:16.508Z,11.40
2023-04-09T07:44:44.040Z,12.88
2023-04-09T07:47:13.087Z,12.00
2023-04-09T07:49:40.401Z,12.50
2023-04-09T07:52:08.326Z,13.82
2023-04-09T07:54:35.955Z,12.95
2023-04-09T07:57:03.749Z,12.85
2023-04-09T07:59:36.876Z,15.98
2023-04-09T08:04:32.029Z,14.45
2023-04-09T08:06:59.128Z,13.90
2023-04-09T08:09:26.238Z,15.85
2023-04-09T08:11:53.563Z,17.08
2023-04-09T08:14:21.418Z,14.57
2023-04-09T08:16:50.321Z,16.88
2023-04-09T08:19:19.162Z,14.20
2023-04-09T08:21:48.969Z,14.82
2023-04-09T08:24:16.333Z,11.77
2023-04-09T08:26:43.715Z,12.73
2023-04-09T08:29:14.995Z,14.68
2023-04-09T08:31:42.601Z,14.90
2023-04-09T08:34:09.784Z,19.90
2023-04-09T08:36:37.244Z,25.20
2023-04-09T08:39:04.590Z,22.83
2023-04-09T08:41:31.881Z,25.13
2023-04-09T08:43:59.960Z,26.35
2023-04-09T08:46:27.943Z,21.50
2023-04-09T08:48:55.694Z,14.00
2023-04-09T08:51:25.002Z,13.65
2023-04-09T08:54:02.970Z,12.73
2023-04-09T08:56:31.457Z,14.10
2023-04-09T08:58:58.826Z,15.57
2023-04-09T09:01:27.179Z,13.70
2023-04-09T09:04:03.291Z,13.23
2023-04-09T09:06:35.948Z,17.20
2023-04-09T09:09:13.484Z,14.77
2023-04-09T09:11:48.692Z,19.42
2023-04-09T09:14:18.072Z,13.93
2023-04-09T09:17:06.496Z,16.25
2023-04-09T09:19:39.583Z,16.67
2023-04-09T09:22:10.999Z,21.23
2023-04-09T09:24:53.092Z,15.93
2023-04-09T09:27:42.733Z,15.90
2023-04-09T09:30:24.378Z,15.38
2023-04-09T09:33:06.014Z,13.32
2023-04-09T09:35:56.153Z,13.93
2023-04-09T09:38:27.720Z,14.70
2023-04-09T09:40:58.223Z,17.55
2023-04-09T09:43:40.643Z,12.70
2023-04-09T09:46:11.604Z,12.43
2023-04-09T09:48:43.145Z,12.90
2023-04-09T09:51:15.685Z,13.32
2023-04-09T09:53:50.860Z,13.27
2023-04-09T09:56:28.240Z,14.43
2023-04-09T09:59:09.861Z,11.85
2023-04-09T10:01:40.067Z,12.88
2023-04-09T10:04:16.125Z,13.60
2023-04-09T10:06:53.324Z,12.32
2023-04-09T10:09:25.708Z,15.55
2023-04-09T10:11:57.558Z,16.70
2023-04-09T10:14:31.111Z,16.38
2023-04-09T10:17:02.000Z,14.85
2023-04-09T10:19:40.784Z,16.73
2023-04-09T10:22:19.382Z,19.67
2023-04-09T10:24:47.367Z,18.60
2023-04-09T10:27:19.075Z,20.17
2023-04-09T10:29:52.101Z,16.00
2023-04-09T10:34:52.173Z,20.35
2023-04-09T10:37:24.492Z,18.50
2023-04-09T10:39:52.690Z,22.63
2023-04-09T10:42:42.168Z,24.02
2023-04-09T10:45:10.896Z,26.10
2023-04-09T10:47:40.455Z,24.20
2023-04-09T10:50:22.415Z,30.40
2023-04-09T10:52:56.742Z,29.73
2023-04-09T10:55:37.303Z,34.40
2023-04-09T10:58:06.322Z,35.72
2023-04-09T11:00:38.659Z,35.85
2023-04-09T11:03:22.386Z,39.85
2023-04-09T11:05:54.574Z,45.45
2023-04-09T11:08:22.393Z,47.90
2023-04-09T11:10:51.923Z,51.75
2023-04-09T11:13:21.352Z,48.70
2023-04-09T11:15:48.446Z,47.78
2023-04-09T11:18:24.229Z,39.70
2023-04-09T11:20:58.718Z,39.00
2023-04-09T11:23:26.621Z,39.22
2023-04-09T11:25:54.422Z,38.63
2023-04-09T11:28:22.336Z,36.67
2023-04-09T11:30:53.963Z,36.80
2023-04-09T11:33:24.619Z,33.70
2023-04-09T11:35:54.968Z,35.13
2023-04-09T11:38:24.519Z,35.15
2023-04-09T11:40:58.429Z,35.67
2023-04-09T11:43:28.515Z,32.25
2023-04-09T11:45:59.217Z,32.65
2023-04-09T11:48:28.898Z,34.67
2023-04-09T11:50:56.787Z,34.47
2023-04-09T11:53:24.747Z,34.28
2023-04-09T11:55:53.077Z,36.20
2023-04-09T11:58:27.513Z,35.22
2023-04-09T12:01:00.871Z,37.20
2023-04-09T12:03:38.841Z,38.13
2023-04-09T12:06:07.195Z,37.40
2023-04-09T12:08:37.798Z,35.63
2023-04-09T12:11:14.782Z,32.13
2023-04-09T12:13:47.408Z,32.53
2023-04-09T12:18:55.925Z,36.58
2023-04-09T12:21:28.794Z,33.85
2023-04-09T12:23:58.725Z,33.97
2023-04-09T12:26:27.330Z,34.10
2023-04-09T12:28:54.523Z,34.17
2023-04-09T12:31:21.612Z,34.38
2023-04-09T12:33:48.866Z,36.08
2023-04-09T12:36:15.980Z,34.88
2023-04-09T12:38:43.043Z,39.50
2023-04-09T12:41:10.181Z,35.50
2023-04-09T12:43:37.636Z,36.65
2023-04-09T12:46:05.132Z,38.17
2023-04-09T12:48:32.249Z,37.17
2023-04-09T12:50:59.366Z,36.03
2023-04-09T12:53:26.838Z,40.50
2023-04-09T12:55:53.917Z,35.35
2023-04-09T12:58:21.162Z,35.15
2023-04-09T13:00:48.332Z,40.92
2023-04-09T13:03:17.111Z,39.50
2023-04-09T13:05:44.563Z,40.35
2023-04-09T13:08:11.603Z,43.13
2023-04-09T13:10:38.949Z,46.60
2023-04-09T13:13:08.573Z,44.22
2023-04-09T13:15:36.045Z,47.72
2023-04-09T13:18:03.730Z,45.10
2023-04-09T13:20:32.107Z,43.92
2023-04-09T13:23:02.262Z,44.92
2023-04-09T13:25:29.768Z,50.03
2023-04-09T13:27:56.780Z,44.83
2023-04-09T13:30:24.604Z,47.90
2023-04-09T13:32:53.355Z,43.00
2023-04-09T13:35:21.244Z,43.92
2023-04-09T13:37:51.857Z,41.75
2023-04-09T13:40:19.187Z,41.85
2023-04-09T13:42:46.294Z,42.13
2023-04-09T13:45:13.461Z,43.67
2023-04-09T13:47:41.286Z,41.00
2023-04-09T13:50:10.421Z,41.45
2023-04-09T13:52:37.491Z,46.80
2023-04-09T13:55:05.066Z,44.80
2023-04-09T13:57:32.216Z,41.75
2023-04-09T14:00:02.308Z,46.15
2023-04-09T14:02:29.546Z,49.63
2023-04-09T14:04:57.350Z,43.00
2023-04-09T14:07:24.468Z,47.13
2023-04-09T14:09:51.843Z,49.85
2023-04-09T14:12:19.228Z,50.30
2023-04-09T14:14:46.395Z,47.75
2023-04-09T14:17:13.539Z,51.92
2023-04-09T14:19:40.527Z,53.65
2023-04-09T14:22:09.011Z,50.40
2023-04-09T14:24:40.273Z,52.05
2023-04-09T14:27:08.345Z,52.13
2023-04-09T14:29:36.846Z,45.05
2023-04-09T14:32:06.962Z,50.20
2023-04-09T14:34:34.550Z,51.50
2023-04-09T14:37:05.698Z,52.28
2023-04-09T14:39:36.632Z,49.38
2023-04-09T14:42:08.532Z,48.40
2023-04-09T14:44:38.317Z,48.53
2023-04-09T14:47:09.749Z,48.85
2023-04-09T14:49:37.313Z,55.75
2023-04-09T14:52:04.460Z,48.47
2023-04-09T14:54:32.351Z,56.28
2023-04-09T14:56:59.590Z,53.42
2023-04-09T14:59:27.185Z,56.17
2023-04-09T15:01:54.420Z,61.92
2023-04-09T15:04:22.228Z,66.72
2023-04-09T15:06:49.458Z,73.13
2023-04-09T15:09:16.518Z,59.72
2023-04-09T15:11:43.832Z,60.10
2023-04-09T15:14:14.132Z,58.30
2023-04-09T15:16:46.962Z,62.05
2023-04-09T15:19:17.496Z,59.20
2023-04-09T15:21:44.740Z,57.42
2023-04-09T15:24:15.444Z,59.03
2023-04-09T15:26:46.332Z,59.05
2023-04-09T15:29:16.177Z,57.95
2023-04-09T15:31:47.197Z,69.05
2023-04-09T15:34:18.622Z,61.20
2023-04-09T15:36:49.243Z,62.00
2023-04-09T15:39:18.978Z,61.28
2023-04-09T15:41:46.442Z,66.00
2023-04-09T15:44:17.267Z,64.95
2023-04-09T15:46:45.886Z,63.90
2023-04-09T15:49:13.298Z,63.83
2023-04-09T15:51:40.394Z,61.92
2023-04-09T15:54:08.240Z,59.55
2023-04-09T15:56:39.802Z,60.33
2023-04-09T15:59:08.685Z,61.75
2023-04-09T16:01:37.117Z,62.95
2023-04-09T16:04:08.329Z,62.55
2023-04-09T16:06:37.352Z,65.25
2023-04-09T16:09:04.507Z,60.53
2023-04-09T16:11:31.797Z,60.78
2023-04-09T16:13:59.549Z,57.38
2023-04-09T16:16:27.036Z,59.42
2023-04-09T16:18:59.897Z,57.20
2023-04-09T16:21:31.215Z,55.67
2023-04-09T16:23:58.398Z,52.35
2023-04-09T16:26:26.229Z,51.15
2023-04-09T16:28:53.584Z,55.03
2023-04-09T16:31:21.087Z,53.90
2023-04-09T16:33:48.300Z,51.45
2023-04-09T16:36:15.961Z,51.38
2023-04-09T16:38:43.447Z,52.10
2023-04-09T16:41:10.741Z,51.40
2023-04-09T16:43:37.802Z,49.22
2023-04-09T16:46:07.544Z,46.97
2023-04-09T16:48:36.597Z,48.88
2023-04-09T16:51:03.875Z,47.85
2023-04-09T16:53:31.171Z,45.42
2023-04-09T16:55:58.504Z,43.20
2023-04-09T16:58:26.189Z,42.50
2023-04-09T17:00:54.142Z,46.35
2023-04-09T17:03:23.401Z,41.38
2023-04-09T17:05:55.080Z,42.28
2023-04-09T17:08:24.483Z,44.13
2023-04-09T17:10:52.280Z,39.35
2023-04-09T17:13:19.375Z,44.03
2023-04-09T17:15:46.416Z,42.67
2023-04-09T17:18:13.515Z,45.42
2023-04-09T17:20:40.693Z,42.78
2023-04-09T17:23:07.804Z,50.33
2023-04-09T17:25:34.888Z,45.97
2023-04-09T17:28:01.976Z,47.63
2023-04-09T17:30:33.375Z,42.08
2023-04-09T17:33:02.832Z,38.83
2023-04-09T17:35:30.179Z,40.35
2023-04-09T17:37:57.304Z,40.70
2023-04-09T17:40:25.261Z,38.45
2023-04-09T17:42:53.118Z,37.28
2023-04-09T17:45:20.184Z,35.60
2023-04-09T17:47:47.430Z,35.95
2023-04-09T17:50:15.037Z,30.95
2023-04-09T17:52:42.139Z,30.95
2023-04-09T17:55:13.692Z,30.45
2023-04-09T17:57:42.263Z,28.95
2023-04-09T18:00:11.228Z,31.33
2023-04-09T18:02:38.662Z,32.67
2023-04-09T18:05:06.429Z,29.48
2023-04-09T18:07:34.353Z,26.17
2023-04-09T18:10:04.064Z,29.00
2023-04-09T18:12:31.279Z,29.77
2023-04-09T18:14:58.388Z,29.20
2023-04-09T18:17:26.711Z,25.50
2023-04-09T18:19:54.748Z,25.70
2023-04-09T18:22:22.788Z,28.83
2023-04-09T18:24:49.906Z,26.92
2023-04-09T18:27:17.915Z,27.58
2023-04-09T18:29:45.101Z,29.23
2023-04-09T18:32:12.643Z,27.73
2023-04-09T18:34:39.799Z,27.05
2023-04-09T18:37:07.765Z,26.33
2023-04-09T18:39:35.366Z,24.65
2023-04-09T18:42:02.847Z,24.55
2023-04-09T18:44:30.453Z,36.97
2023-04-09T18:46:59.552Z,32.85
2023-04-09T18:49:27.539Z,25.02
2023-04-09T18:51:56.177Z,23.38
2023-04-09T18:54:23.812Z,34.22
2023-04-09T18:56:50.801Z,34.67
2023-04-09T18:59:17.885Z,26.23
2023-04-09T19:01:45.795Z,23.08
2023-04-09T19:04:14.238Z,23.40
2023-04-09T19:06:41.388Z,24.85
2023-04-09T19:09:08.681Z,29.65
2023-04-09T19:11:35.859Z,26.08
2023-04-09T19:14:03.827Z,26.95
2023-04-09T19:16:31.004Z,27.35
2023-04-09T19:18:58.226Z,31.65
2023-04-09T19:21:29.142Z,25.85
2023-04-09T19:23:56.911Z,22.10
2023-04-09T19:26:24.656Z,22.70
2023-04-09T19:28:51.932Z,21.60
2023-04-09T19:31:19.661Z,23.95
2023-04-09T19:33:46.990Z,23.08
2023-04-09T19:36:15.010Z,27.75
2023-04-09T19:38:42.704Z,28.10
2023-04-09T19:41:10.301Z,28.13
2023-04-09T19:43:39.303Z,25.90
2023-04-09T19:46:09.075Z,24.38
2023-04-09T19:48:38.029Z,24.80
2023-04-09T19:51:06.006Z,25.88
2023-04-09T19:53:33.897Z,24.17
2023-04-09T19:56:01.949Z,29.13
2023-04-09T19:58:32.438Z,36.92
2023-04-09T20:01:00.291Z,32.92
2023-04-09T20:03:28.361Z,31.83
2023-04-09T20:05:58.819Z,29.60
2023-04-09T20:08:27.465Z,30.45
2023-04-09T20:10:54.953Z,35.22
2023-04-09T20:13:22.546Z,29.73
2023-04-09T20:15:50.659Z,34.65
2023-04-09T20:18:18.698Z,38.08
2023-04-09T20:20:46.824Z,35.70
2023-04-09T20:23:14.814Z,30.23
2023-04-09T20:25:41.992Z,30.23
2023-04-09T20:28:10.866Z,33.78
2023-04-09T20:30:38.028Z,34.55
2023-04-09T20:33:05.211Z,34.83
2023-04-09T20:35:36.613Z,34.70
2023-04-09T20:38:06.838Z,31.27
2023-04-09T20:40:36.667Z,30.48
2023-04-09T20:43:04.411Z,23.00
2023-04-09T20:45:31.656Z,25.55
2023-04-09T20:47:58.747Z,25.73
2023-04-09T20:50:26.048Z,25.52
2023-04-09T20:52:53.156Z,22.00
2023-04-09T20:55:20.413Z,21.65
2023-04-09T20:57:48.028Z,19.15
2023-04-09T21:00:16.166Z,19.60
2023-04-09T21:02:46.602Z,17.98
2023-04-09T21:05:23.634Z,20.77
2023-04-09T21:07:55.971Z,23.77
2023-04-09T21:10:23.429Z,19.75
2023-04-09T21:12:50.755Z,19.50
2023-04-09T21:15:18.436Z,20.90
2023-04-09T21:17:45.795Z,20.88
2023-04-09T21:20:13.032Z,20.67
2023-04-09T21:22:40.148Z,36.05
2023-04-09T21:25:07.577Z,19.65
2023-04-09T21:27:34.637Z,20.70
2023-04-09T21:30:01.767Z,18.23
2023-04-09T21:32:28.870Z,20.70
2023-04-09T21:34:55.888Z,18.08
2023-04-09T21:37:23.015Z,18.08
2023-04-09T21:39:50.104Z,17.23
2023-04-09T21:42:17.125Z,18.83
2023-04-09T21:44:44.232Z,18.05
2023-04-09T21:47:12.483Z,21.25
2023-04-09T21:49:40.693Z,16.65
2023-04-09T21:52:14.686Z,17.50
2023-04-09T21:54:43.520Z,22.00
2023-04-09T21:57:11.362Z,19.88
2023-04-09T21:59:38.657Z,18.48
2023-04-09T22:02:05.913Z,19.20
2023-04-09T22:04:35.307Z,19.15
2023-04-09T22:07:03.505Z,23.20
2023-04-09T22:09:31.635Z,22.88
2023-04-09T22:11:59.794Z,26.88
2023-04-09T22:14:29.736Z,27.35
2023-04-09T22:16:58.541Z,27.73
2023-04-09T22:19:26.389Z,19.90
2023-04-09T22:21:54.022Z,23.35
2023-04-09T22:24:27.115Z,21.80
2023-04-09T22:26:54.399Z,20.50
2023-04-09T22:29:21.678Z,18.67
2023-04-09T22:31:48.840Z,19.05
2023-04-09T22:34:21.547Z,20.60
2023-04-09T22:39:16.201Z,24.33
2023-04-09T22:41:43.609Z,20.58
2023-04-09T22:44:10.741Z,20.77
2023-04-09T22:46:37.953Z,21.80
2023-04-09T22:49:06.146Z,21.88
2023-04-09T22:51:36.424Z,22.05
2023-04-09T22:54:03.856Z,18.73
2023-04-09T22:56:33.540Z,20.75
2023-04-09T22:59:00.753Z,20.15
2023-04-09T23:01:28.802Z,19.60
2023-04-09T23:03:56.420Z,22.25
2023-04-09T23:06:25.456Z,22.60
2023-04-09T23:08:52.881Z,21.88
2023-04-09T23:11:21.120Z,21.95
2023-04-09T23:13:48.195Z,17.48
2023-04-09T23:16:15.551Z,17.50
2023-04-09T23:18:42.547Z,19.30
2023-04-09T23:21:10.722Z,18.48
2023-04-09T23:23:38.968Z,18.25
2023-04-09T23:26:06.474Z,16.10
2023-04-09T23:28:33.631Z,18.35
2023-04-09T23:31:00.891Z,20.38
2023-04-09T23:33:28.157Z,17.88
2023-04-09T23:35:55.349Z,18.08
2023-04-09T23:38:22.535Z,18.60
2023-04-09T23:40:50.068Z,17.33
2023-04-09T23:43:17.184Z,17.63
2023-04-09T23:45:44.576Z,17.38
2023-04-09T23:48:12.318Z,16.30
2023-04-09T23:50:41.401Z,20.42
2023-04-09T23:53:09.031Z,21.20
2023-04-09T23:55:41.262Z,18.98
2023-04-09T23:58:09.899Z,17.92
